• Join FlightAware (Why Join?)
  • Login
  • US Flag 
10:54AM EDT


 

Airport Tracker/Info


-or-


 

Live Flight TrackerFlight Track Log ✈ N1250V ✈ 28-May-2014 ✈ KEKM - KLUK

Flight Track Log - Related Links

Times and Time Zones

All times are in EDT time to prevent confusion due to time zone crossing. See the N1250V flight status page for this flight to view local times or setup timezone preferences in your user account.

Time Position Orientation Groundspeed Altitude Reporting Facility
EDT Latitude Longitude Course Direction KTS MPH feet Rate Location/Type
05:58PM 41.6972 -85.9550 140° Southeast 173 199 3,600  Level Chicago Center
05:59PM 41.6575 -85.9119 141° Southeast 180 207 6,100 2,400 Climbing Chicago Center
06:00PM 41.6150 -85.8628 139° Southeast 197 227 8,700 2,340 Climbing Chicago Center
06:01PM 41.5706 -85.8156 142° Southeast 202 232 11,000 2,340 Climbing Chicago Center
06:02PM 41.5125 -85.7558 142° Southeast 218 251 13,600 2,100 Climbing Chicago Center
06:03PM 41.3573 -85.5998 140° Southeast  Level FlightAware Approximate
06:03PM 41.4650 -85.7036 141° Southeast 221 254 15,400  Level Chicago Center
06:04PM 41.4147 -85.6503 141° Southeast 229 264 16,700 780 Climbing Chicago Center
06:05PM 41.3581 -85.5897 141° Southeast 261 300 17,100 180 Climbing Chicago Center
06:06PM 41.2778 -85.5042 141° Southeast 307 353 17,100  Level Chicago Center
06:07PM 41.2086 -85.4297 141° Southeast 318 366 17,100  Level Chicago Center
06:08PM 41.1378 -85.3564 142° Southeast 321 369 17,100 -60 Level Chicago Center
06:09PM 41.0650 -85.2789 141° Southeast 331 381 17,000 -60 Descending Chicago Center
06:10PM 40.9939 -85.2025 141° Southeast 332 382 17,000  Level Chicago Center
06:11PM 40.9219 -85.0903 130° Southeast 334 384 17,000  Level Chicago Center
06:12PM 40.8650 -84.9958 129° Southeast 334 384 17,000  Level Chicago Center
06:13PM 40.8086 -84.9011 128° Southeast 331 381 17,000  Level Chicago Center
06:14PM 40.7525 -84.8069 128° Southeast 330 380 17,000  Level Chicago Center
06:15PM 40.6942 -84.7211 132° Southeast 318 366 17,000  Level Chicago Center
06:16PM 40.6333 -84.6439 136° Southeast 310 357 17,000  Level Chicago Center
06:17PM 40.5767 -84.5736 137° Southeast 312 359 17,000  Level Indianapolis Center
06:18PM 40.5144 -84.4928 135° Southeast 312 359 17,000 -120 Level Indianapolis Center
06:18PM 40.4928 -84.4653 136° Southeast 314 361 16,900 -120 Descending Indianapolis Center
06:19PM 40.4458 -84.4317 151° Southeast 314 361 16,900  Level Indianapolis Center
06:20PM 40.3647 -84.4225 175° South 304 350 16,900 60 Level Indianapolis Center
06:20PM 40.3597 -84.4225 180° South 304 350 17,000  Climbing Indianapolis Center
06:21PM 40.2783 -84.4231 180° South 307 353 16,900  Descending Indianapolis Center
06:21PM 40.2750 -84.4222 169° South 304 350 17,000  Climbing Indianapolis Center
06:22PM 40.1922 -84.4211 179° South 314 361 16,900  Descending Indianapolis Center
06:22PM 40.1872 -84.4217 185° South 309 356 17,000  Climbing Indianapolis Center
06:23PM 40.1078 -84.4222 180° South 304 350 16,900 -120 Descending Indianapolis Center
06:23PM 40.0861 -84.4225 181° South 311 358 16,900 -480 Level Indianapolis Center
06:24PM 40.0306 -84.4356 190° South 303 349 16,500 -600 Descending Indianapolis Center
06:24PM 40.0047 -84.4439 194° South 304 350 16,300 -1,140 Descending Indianapolis Center
06:25PM 39.9269 -84.4644 191° South 295 339 15,000 -2,040 Descending Indianapolis Center
06:26PM 39.8700 -84.4800 192° South 280 322 12,900 -2,640 Descending Indianapolis Center
06:26PM 39.8514 -84.4839 189° South 285 328 12,300 -2,580 Descending Indianapolis Center
06:27PM 39.7717 -84.4967 187° South 285 328 9,300 -3,000 Descending Indianapolis Center
06:28PM 39.6944 -84.4997 182° South 284 327 6,100 -2,280 Descending Indianapolis Center
06:29PM 39.6131 -84.5236 193° South 258 297 4,700 -1,020 Descending Indianapolis Center
06:30PM 39.5403 -84.5200 178° South 259 298 4,100 -480 Descending Indianapolis Center
06:31PM 39.4706 -84.5042 170° South 260 299 3,800 -540 Descending Indianapolis Center
06:32PM 39.4000 -84.4875 170° South 258 297 3,000 -420 Descending Indianapolis Center
06:33PM 39.3317 -84.4703 169° South 258 297 3,000 -60 Level Indianapolis Center
06:34PM 39.2750 -84.4394 157° South 236 272 2,900 -360 Descending Indianapolis Center
06:36PM 39.1667 -84.3833 158° South 148 170 2,000 -600 Descending Cincinnati TRACON
06:37PM 39.1333 -84.4000 201° Southwest 99 114 1,200 -840 Descending Cincinnati TRACON
06:39PM 39.1000 -84.4167 195° South  Level FlightAware Approximate
06:46PM 39.1033 -84.4186 195° South  Level Estimated